createdAt,value
2023-05-11T00:00:18.547Z,925.00
2023-05-11T00:01:18.410Z,922.00
2023-05-11T00:02:18.485Z,920.00
2023-05-11T00:03:18.586Z,919.00
2023-05-11T00:04:18.574Z,917.00
2023-05-11T00:05:18.553Z,919.00
2023-05-11T00:06:18.557Z,919.00
2023-05-11T00:07:18.567Z,920.00
2023-05-11T00:08:18.590Z,919.00
2023-05-11T00:09:18.607Z,917.00
2023-05-11T00:10:18.887Z,915.00
2023-05-11T00:11:18.675Z,914.00
2023-05-11T00:12:18.665Z,914.00
2023-05-11T00:13:18.692Z,911.00
2023-05-11T00:14:18.756Z,912.00
2023-05-11T00:15:18.778Z,913.00
2023-05-11T00:16:18.802Z,910.00
2023-05-11T00:17:18.821Z,911.00
2023-05-11T00:18:18.858Z,909.00
2023-05-11T00:19:18.846Z,909.00
2023-05-11T00:20:19.042Z,909.00
2023-05-11T00:21:18.930Z,909.00
2023-05-11T00:22:18.911Z,907.00
2023-05-11T00:23:18.982Z,908.00
2023-05-11T00:24:18.993Z,911.00
2023-05-11T00:25:19.009Z,912.00
2023-05-11T00:26:19.052Z,912.00
2023-05-11T00:27:19.043Z,909.00
2023-05-11T00:28:19.087Z,911.00
2023-05-11T00:29:19.132Z,912.00
2023-05-11T00:30:19.295Z,913.00
2023-05-11T00:31:19.198Z,912.00
2023-05-11T00:32:19.258Z,912.00
2023-05-11T00:33:19.204Z,913.00
2023-05-11T00:34:19.279Z,912.00
2023-05-11T00:35:19.404Z,911.00
2023-05-11T00:36:19.321Z,911.00
2023-05-11T00:37:19.334Z,907.00
2023-05-11T00:38:19.370Z,908.00
2023-05-11T00:39:19.399Z,907.00
2023-05-11T00:40:19.624Z,911.00
2023-05-11T00:41:19.467Z,909.00
2023-05-11T00:42:19.478Z,910.00
2023-05-11T00:43:19.503Z,909.00
2023-05-11T00:44:19.515Z,906.00
2023-05-11T00:45:19.532Z,908.00
2023-05-11T00:46:19.625Z,907.00
2023-05-11T00:47:19.587Z,905.00
2023-05-11T00:48:19.590Z,902.00
2023-05-11T00:49:19.649Z,901.00
2023-05-11T00:50:19.784Z,903.00
2023-05-11T00:51:19.683Z,904.00
2023-05-11T00:52:19.686Z,904.00
2023-05-11T00:53:19.718Z,905.00
2023-05-11T00:54:19.755Z,905.00
2023-05-11T00:55:19.763Z,904.00
2023-05-11T00:56:19.827Z,902.00
2023-05-11T00:57:19.855Z,898.00
2023-05-11T00:58:19.868Z,899.00
2023-05-11T00:59:19.907Z,900.00
2023-05-11T01:00:20.248Z,899.00
2023-05-11T01:01:19.982Z,897.00
2023-05-11T01:02:20.016Z,896.00
2023-05-11T01:03:19.992Z,896.00
2023-05-11T01:04:20.045Z,894.00
2023-05-11T01:05:20.063Z,894.00
2023-05-11T01:06:20.080Z,895.00
2023-05-11T01:07:20.105Z,892.00
2023-05-11T01:08:20.117Z,895.00
2023-05-11T01:09:20.148Z,894.00
2023-05-11T01:10:20.354Z,896.00
2023-05-11T01:11:20.271Z,899.00
2023-05-11T01:12:20.209Z,898.00
2023-05-11T01:13:20.259Z,898.00
2023-05-11T01:14:20.275Z,898.00
2023-05-11T01:15:20.301Z,894.00
2023-05-11T01:16:20.403Z,895.00
2023-05-11T01:17:20.357Z,894.00
2023-05-11T01:18:20.490Z,895.00
2023-05-11T01:19:20.415Z,895.00
2023-05-11T01:20:20.629Z,896.00
2023-05-11T01:21:20.452Z,895.00
2023-05-11T01:22:20.480Z,894.00
2023-05-11T01:23:20.491Z,895.00
2023-05-11T01:24:20.519Z,893.00
2023-05-11T01:25:20.537Z,888.00
2023-05-11T01:26:20.575Z,889.00
2023-05-11T01:27:20.600Z,888.00
2023-05-11T01:28:20.634Z,890.00
2023-05-11T01:29:20.660Z,891.00
2023-05-11T01:30:20.674Z,891.00
2023-05-11T01:31:20.785Z,892.00
2023-05-11T01:32:20.738Z,887.00
2023-05-11T01:33:20.756Z,884.00
2023-05-11T01:34:20.805Z,882.00
2023-05-11T01:35:20.818Z,882.00
2023-05-11T01:36:20.851Z,884.00
2023-05-11T01:37:20.852Z,882.00
2023-05-11T01:38:20.884Z,882.00
2023-05-11T01:39:20.921Z,884.00
2023-05-11T01:40:20.915Z,883.00
2023-05-11T01:41:20.959Z,884.00
2023-05-11T01:42:21.002Z,884.00
2023-05-11T01:43:20.988Z,881.00
2023-05-11T01:44:21.029Z,884.00
2023-05-11T01:45:21.082Z,886.00
2023-05-11T01:46:21.120Z,889.00
2023-05-11T01:47:21.130Z,888.00
2023-05-11T01:48:21.154Z,886.00
2023-05-11T01:49:21.170Z,882.00
2023-05-11T01:50:21.339Z,882.00
2023-05-11T01:51:21.256Z,881.00
2023-05-11T01:52:21.274Z,879.00
2023-05-11T01:53:21.306Z,879.00
2023-05-11T01:54:21.350Z,879.00
2023-05-11T01:55:21.375Z,880.00
2023-05-11T01:56:21.405Z,882.00
2023-05-11T01:57:21.451Z,884.00
2023-05-11T01:58:21.486Z,886.00
2023-05-11T01:59:21.519Z,882.00
2023-05-11T02:00:21.524Z,880.00
2023-05-11T02:01:21.554Z,880.00
2023-05-11T02:02:21.633Z,880.00
2023-05-11T02:03:21.658Z,880.00
2023-05-11T02:04:21.666Z,882.00
2023-05-11T02:05:21.669Z,885.00
2023-05-11T02:06:21.694Z,883.00
2023-05-11T02:07:21.715Z,882.00
2023-05-11T02:08:21.742Z,881.00
2023-05-11T02:09:21.777Z,881.00
2023-05-11T02:10:21.807Z,881.00
2023-05-11T02:11:21.839Z,877.00
2023-05-11T02:12:21.863Z,878.00
2023-05-11T02:13:21.939Z,876.00
2023-05-11T02:14:21.918Z,877.00
2023-05-11T02:15:21.975Z,880.00
2023-05-11T02:16:21.997Z,881.00
2023-05-11T02:17:21.990Z,881.00
2023-05-11T02:18:22.109Z,880.00
2023-05-11T02:19:22.066Z,879.00
2023-05-11T02:20:22.095Z,878.00
2023-05-11T02:21:22.127Z,876.00
2023-05-11T02:22:22.152Z,880.00
2023-05-11T02:23:22.201Z,883.00
2023-05-11T02:24:22.238Z,879.00
2023-05-11T02:25:22.262Z,878.00
2023-05-11T02:26:22.297Z,872.00
2023-05-11T02:27:22.323Z,870.00
2023-05-11T02:28:22.395Z,871.00
2023-05-11T02:29:22.385Z,871.00
2023-05-11T02:30:22.440Z,873.00
2023-05-11T02:31:22.487Z,874.00
2023-05-11T02:32:22.555Z,876.00
2023-05-11T02:33:22.520Z,872.00
2023-05-11T02:34:22.550Z,873.00
2023-05-11T02:35:22.567Z,874.00
2023-05-11T02:36:22.609Z,872.00
2023-05-11T02:37:22.685Z,872.00
2023-05-11T02:38:22.670Z,872.00
2023-05-11T02:39:22.758Z,873.00
2023-05-11T02:40:22.714Z,873.00
2023-05-11T02:41:22.740Z,873.00
2023-05-11T02:42:22.757Z,872.00
2023-05-11T02:43:22.779Z,870.00
2023-05-11T02:44:22.854Z,872.00
2023-05-11T02:45:22.862Z,869.00
2023-05-11T02:46:22.944Z,869.00
2023-05-11T02:47:22.938Z,867.00
2023-05-11T02:48:22.955Z,871.00
2023-05-11T02:49:22.992Z,867.00
2023-05-11T02:50:23.006Z,870.00
2023-05-11T02:51:23.029Z,866.00
2023-05-11T02:52:23.092Z,865.00
2023-05-11T02:53:23.120Z,867.00
2023-05-11T02:54:23.134Z,868.00
2023-05-11T02:55:23.153Z,869.00
2023-05-11T02:56:23.174Z,870.00
2023-05-11T02:57:23.201Z,872.00
2023-05-11T02:58:23.306Z,872.00
2023-05-11T02:59:23.273Z,874.00
2023-05-11T03:00:23.373Z,876.00
2023-05-11T03:01:23.441Z,872.00
2023-05-11T03:02:23.503Z,872.00
2023-05-11T03:03:23.432Z,872.00
2023-05-11T03:04:23.461Z,875.00
2023-05-11T03:05:23.490Z,875.00
2023-05-11T03:06:23.508Z,875.00
2023-05-11T03:07:23.529Z,876.00
2023-05-11T03:08:23.592Z,871.00
2023-05-11T03:09:23.608Z,868.00
2023-05-11T03:10:23.651Z,866.00
2023-05-11T03:11:23.739Z,870.00
2023-05-11T03:12:23.715Z,878.00
2023-05-11T03:13:23.745Z,879.00
2023-05-11T03:14:23.813Z,876.00
2023-05-11T03:15:23.825Z,877.00
2023-05-11T03:16:23.846Z,876.00
2023-05-11T03:17:23.921Z,873.00
2023-05-11T03:18:23.953Z,872.00
2023-05-11T03:19:23.957Z,871.00
2023-05-11T03:20:23.987Z,867.00
2023-05-11T03:21:24.009Z,869.00
2023-05-11T03:22:24.039Z,869.00
2023-05-11T03:23:24.068Z,867.00
2023-05-11T03:24:24.106Z,864.00
2023-05-11T03:25:24.177Z,861.00
2023-05-11T03:26:24.188Z,864.00
2023-05-11T03:27:24.209Z,862.00
2023-05-11T03:28:24.241Z,861.00
2023-05-11T03:29:24.294Z,858.00
2023-05-11T03:30:24.315Z,858.00
2023-05-11T03:31:24.366Z,861.00
2023-05-11T03:32:24.506Z,862.00
2023-05-11T03:33:24.386Z,860.00
2023-05-11T03:34:24.431Z,860.00
2023-05-11T03:35:24.470Z,860.00
2023-05-11T03:36:24.468Z,862.00
2023-05-11T03:37:24.505Z,860.00
2023-05-11T03:38:24.560Z,861.00
2023-05-11T03:39:24.582Z,863.00
2023-05-11T03:40:24.644Z,864.00
2023-05-11T03:41:24.680Z,862.00
2023-05-11T03:42:24.686Z,862.00
2023-05-11T03:43:24.719Z,862.00
2023-05-11T03:44:24.727Z,863.00
2023-05-11T03:45:24.786Z,864.00
2023-05-11T03:46:24.858Z,863.00
2023-05-11T03:47:24.881Z,863.00
2023-05-11T03:48:24.862Z,863.00
2023-05-11T03:49:24.920Z,860.00
2023-05-11T03:50:24.937Z,860.00
2023-05-11T03:51:24.974Z,861.00
2023-05-11T03:52:25.035Z,861.00
2023-05-11T03:53:25.047Z,863.00
2023-05-11T03:54:25.075Z,863.00
2023-05-11T03:55:25.103Z,863.00
2023-05-11T03:56:25.165Z,866.00
2023-05-11T03:57:25.176Z,868.00
2023-05-11T03:58:25.197Z,868.00
2023-05-11T03:59:25.223Z,869.00
2023-05-11T04:00:25.702Z,866.00
2023-05-11T04:01:25.296Z,866.00
2023-05-11T04:02:25.383Z,866.00
2023-05-11T04:03:25.470Z,867.00
2023-05-11T04:04:25.380Z,865.00
2023-05-11T04:05:25.401Z,866.00
2023-05-11T04:06:25.449Z,866.00
2023-05-11T04:07:25.466Z,866.00
2023-05-11T04:08:25.526Z,865.00
2023-05-11T04:09:25.552Z,867.00
2023-05-11T04:10:25.570Z,864.00
2023-05-11T04:11:25.606Z,863.00
2023-05-11T04:12:25.610Z,861.00
2023-05-11T04:13:25.649Z,862.00
2023-05-11T04:14:25.693Z,859.00
2023-05-11T04:15:25.718Z,851.00
2023-05-11T04:16:25.788Z,854.00
2023-05-11T04:17:25.845Z,851.00
2023-05-11T04:18:25.862Z,850.00
2023-05-11T04:19:25.850Z,852.00
2023-05-11T04:20:25.915Z,853.00
2023-05-11T04:21:25.944Z,853.00
2023-05-11T04:22:25.957Z,852.00
2023-05-11T04:23:25.981Z,854.00
2023-05-11T04:24:26.018Z,853.00
2023-05-11T04:25:26.062Z,851.00
2023-05-11T04:26:26.068Z,850.00
2023-05-11T04:27:26.114Z,851.00
2023-05-11T04:28:26.145Z,852.00
2023-05-11T04:29:26.196Z,852.00
2023-05-11T04:30:26.200Z,853.00
2023-05-11T04:31:26.339Z,855.00
2023-05-11T04:32:26.360Z,855.00
2023-05-11T04:33:26.297Z,854.00
2023-05-11T04:34:26.334Z,853.00
2023-05-11T04:35:26.377Z,855.00
2023-05-11T04:36:26.415Z,853.00
2023-05-11T04:37:26.454Z,854.00
2023-05-11T04:38:26.494Z,853.00
2023-05-11T04:39:26.493Z,853.00
2023-05-11T04:40:26.539Z,850.00
2023-05-11T04:41:26.563Z,852.00
2023-05-11T04:42:26.590Z,848.00
2023-05-11T04:43:26.643Z,845.00
2023-05-11T04:44:26.650Z,843.00
2023-05-11T04:45:26.687Z,841.00
2023-05-11T04:46:26.713Z,841.00
2023-05-11T04:47:26.823Z,842.00
2023-05-11T04:48:26.784Z,840.00
2023-05-11T04:49:26.813Z,840.00
2023-05-11T04:50:26.852Z,837.00
2023-05-11T04:51:26.874Z,838.00
2023-05-11T04:52:26.920Z,841.00
2023-05-11T04:53:26.944Z,841.00
2023-05-11T04:54:27.014Z,838.00
2023-05-11T04:55:27.024Z,841.00
2023-05-11T04:56:27.034Z,840.00
2023-05-11T04:57:27.068Z,839.00
2023-05-11T04:58:27.133Z,839.00
2023-05-11T04:59:27.172Z,839.00
2023-05-11T05:00:27.171Z,838.00
2023-05-11T05:01:27.234Z,842.00
2023-05-11T05:02:27.240Z,845.00
2023-05-11T05:03:27.307Z,846.00
2023-05-11T05:04:27.291Z,845.00
2023-05-11T05:05:27.349Z,844.00
2023-05-11T05:06:27.346Z,845.00
2023-05-11T05:07:27.406Z,842.00
2023-05-11T05:08:27.421Z,841.00
2023-05-11T05:09:27.448Z,842.00
2023-05-11T05:10:27.507Z,842.00
2023-05-11T05:11:27.556Z,841.00
2023-05-11T05:12:27.546Z,839.00
2023-05-11T05:13:27.577Z,836.00
2023-05-11T05:14:27.636Z,836.00
2023-05-11T05:15:27.666Z,834.00
2023-05-11T05:16:28.375Z,830.00
2023-05-11T05:17:27.773Z,831.00
2023-05-11T05:18:27.796Z,833.00
2023-05-11T05:19:27.796Z,830.00
2023-05-11T05:20:27.855Z,830.00
2023-05-11T05:21:27.875Z,831.00
2023-05-11T05:22:27.936Z,831.00
2023-05-11T05:23:27.902Z,833.00
2023-05-11T05:24:27.933Z,832.00
2023-05-11T05:25:27.977Z,834.00
2023-05-11T05:26:28.087Z,832.00
2023-05-11T05:27:28.032Z,832.00
2023-05-11T05:28:28.063Z,831.00
2023-05-11T05:29:28.113Z,830.00
2023-05-11T05:30:28.184Z,829.00
2023-05-11T05:31:28.294Z,827.00
2023-05-11T05:32:28.249Z,825.00
2023-05-11T05:33:28.248Z,827.00
2023-05-11T05:34:28.271Z,829.00
2023-05-11T05:35:28.856Z,834.00
2023-05-11T05:36:28.361Z,844.00
2023-05-11T05:37:28.371Z,980.00
2023-05-11T05:38:28.394Z,892.00
2023-05-11T05:39:28.469Z,903.00
2023-05-11T05:40:28.471Z,914.00
2023-05-11T05:41:28.524Z,965.00
2023-05-11T05:42:28.526Z,1048.00
2023-05-11T05:43:28.610Z,1023.00
2023-05-11T05:44:28.604Z,1038.00
2023-05-11T05:45:28.639Z,1040.00
2023-05-11T05:46:28.702Z,1131.00
2023-05-11T05:47:28.753Z,1135.00
2023-05-11T05:48:28.731Z,1151.00
2023-05-11T05:49:28.748Z,1169.00
2023-05-11T05:50:28.794Z,1231.00
2023-05-11T05:51:28.803Z,1299.00
2023-05-11T05:52:28.968Z,1344.00
2023-05-11T05:53:28.931Z,1360.00
2023-05-11T05:54:28.943Z,1414.00
2023-05-11T05:55:28.953Z,1426.00
2023-05-11T05:56:28.889Z,1468.00
2023-05-11T05:57:28.989Z,1511.00
2023-05-11T05:58:28.946Z,1539.00
2023-05-11T05:59:28.981Z,1602.00
2023-05-11T06:00:29.259Z,1610.00
2023-05-11T06:01:29.033Z,1657.00
2023-05-11T06:02:29.206Z,1718.00
2023-05-11T06:03:29.597Z,1736.00
2023-05-11T06:04:29.128Z,1744.00
2023-05-11T06:05:29.097Z,1753.00
2023-05-11T06:06:29.108Z,1777.00
2023-05-11T06:07:29.178Z,1827.00
2023-05-11T06:08:29.198Z,1850.00
2023-05-11T06:09:29.236Z,1881.00
2023-05-11T06:10:29.718Z,1899.00
2023-05-11T06:11:29.338Z,1971.00
2023-05-11T06:12:29.400Z,1988.00
2023-05-11T06:13:29.436Z,2014.00
2023-05-11T06:14:29.464Z,2035.00
2023-05-11T06:15:29.508Z,2082.00
2023-05-11T06:16:29.638Z,2104.00
2023-05-11T06:17:29.637Z,1989.00
2023-05-11T06:18:29.722Z,1712.00
2023-05-11T06:19:29.713Z,1579.00
2023-05-11T06:20:29.777Z,1397.00
2023-05-11T06:21:29.762Z,1470.00
2023-05-11T06:22:29.772Z,1423.00
2023-05-11T06:23:29.840Z,1649.00
2023-05-11T06:24:29.850Z,1722.00
2023-05-11T06:25:29.883Z,1713.00
2023-05-11T06:26:29.982Z,1718.00
2023-05-11T06:27:29.984Z,1728.00
2023-05-11T06:28:29.981Z,1769.00
2023-05-11T06:29:30.039Z,1804.00
2023-05-11T06:30:30.102Z,1838.00
2023-05-11T06:31:30.193Z,1841.00
2023-05-11T06:32:30.234Z,1875.00
2023-05-11T06:33:30.235Z,1910.00
2023-05-11T06:34:30.416Z,1954.00
2023-05-11T06:35:30.400Z,1989.00
2023-05-11T06:36:30.450Z,2025.00
2023-05-11T06:37:30.512Z,2070.00
2023-05-11T06:38:30.502Z,2085.00
2023-05-11T06:39:30.552Z,2087.00
2023-05-11T06:40:30.762Z,2065.00
2023-05-11T06:41:30.621Z,2092.00
2023-05-11T06:42:30.661Z,2109.00
2023-05-11T06:43:30.698Z,2114.00
2023-05-11T06:44:30.739Z,2126.00
2023-05-11T06:45:30.948Z,2132.00
2023-05-11T06:46:30.889Z,2141.00
2023-05-11T06:47:30.938Z,2144.00
2023-05-11T06:48:30.969Z,2151.00
2023-05-11T06:49:31.019Z,2178.00
2023-05-11T06:50:31.229Z,2199.00
2023-05-11T06:51:31.119Z,2214.00
2023-05-11T06:52:31.218Z,2223.00
2023-05-11T06:53:31.200Z,2222.00
2023-05-11T06:54:31.248Z,2226.00
2023-05-11T06:55:31.310Z,2220.00
2023-05-11T06:56:31.362Z,2211.00
2023-05-11T06:57:31.376Z,2199.00
2023-05-11T06:58:31.428Z,2195.00
2023-05-11T06:59:31.476Z,2191.00
2023-05-11T07:00:31.548Z,2186.00
2023-05-11T07:01:31.633Z,2186.00
2023-05-11T07:02:31.656Z,2179.00
2023-05-11T07:03:31.616Z,2173.00
2023-05-11T07:04:31.647Z,2167.00
2023-05-11T07:05:31.667Z,2156.00
2023-05-11T07:06:31.646Z,2147.00
2023-05-11T07:07:31.654Z,2146.00
2023-05-11T07:08:31.684Z,2147.00
2023-05-11T07:09:31.682Z,2149.00
2023-05-11T07:10:31.702Z,2145.00
2023-05-11T07:11:31.706Z,2136.00
2023-05-11T07:12:31.706Z,2136.00
2023-05-11T07:13:31.731Z,2134.00
2023-05-11T07:14:31.753Z,2133.00
2023-05-11T07:15:31.774Z,2131.00
2023-05-11T07:16:31.794Z,2126.00
2023-05-11T07:17:31.847Z,2123.00
2023-05-11T07:18:31.961Z,2119.00
2023-05-11T07:19:31.913Z,2115.00
2023-05-11T07:20:31.922Z,2108.00
2023-05-11T07:21:31.945Z,2109.00
2023-05-11T07:22:32.008Z,2106.00
2023-05-11T07:23:31.990Z,2106.00
2023-05-11T07:24:31.993Z,2097.00
2023-05-11T07:25:31.999Z,2094.00
2023-05-11T07:26:32.026Z,2096.00
2023-05-11T07:27:32.052Z,2093.00
2023-05-11T07:28:32.108Z,2093.00
2023-05-11T07:29:32.097Z,2090.00
2023-05-11T07:30:32.119Z,2088.00
2023-05-11T07:31:32.212Z,2091.00
2023-05-11T07:32:32.193Z,1991.00
2023-05-11T07:33:32.202Z,1266.00
2023-05-11T07:34:32.216Z,1111.00
2023-05-11T07:35:32.250Z,1085.00
2023-05-11T07:36:32.773Z,1064.00
2023-05-11T07:37:32.276Z,1036.00
2023-05-11T07:38:32.292Z,1106.00
2023-05-11T07:39:32.320Z,1084.00
2023-05-11T07:40:32.348Z,1041.00
2023-05-11T07:41:32.829Z,902.00
2023-05-11T07:42:32.394Z,894.00
2023-05-11T07:43:32.434Z,890.00
2023-05-11T07:44:32.499Z,878.00
2023-05-11T07:45:32.473Z,823.00
2023-05-11T07:46:32.886Z,816.00
2023-05-11T07:47:34.459Z,764.00
2023-05-11T07:48:32.633Z,740.00
2023-05-11T07:49:42.851Z,729.00
2023-05-11T07:50:33.566Z,711.00
2023-05-11T07:51:32.561Z,695.00
2023-05-11T07:52:32.572Z,679.00
2023-05-11T07:53:32.535Z,667.00
2023-05-11T07:54:32.541Z,658.00
2023-05-11T07:55:32.518Z,653.00
2023-05-11T07:56:32.521Z,647.00
2023-05-11T07:57:32.551Z,642.00
2023-05-11T07:58:32.507Z,635.00
2023-05-11T07:59:32.500Z,631.00
2023-05-11T08:00:32.520Z,626.00
2023-05-11T08:01:32.498Z,619.00
2023-05-11T08:02:32.573Z,617.00
2023-05-11T08:03:32.499Z,619.00
2023-05-11T08:04:32.539Z,616.00
2023-05-11T08:05:32.505Z,619.00
2023-05-11T08:06:32.457Z,622.00
2023-05-11T08:07:32.460Z,632.00
2023-05-11T08:08:32.440Z,632.00
2023-05-11T08:09:32.431Z,662.00
2023-05-11T08:10:32.441Z,650.00
2023-05-11T08:11:32.444Z,649.00
2023-05-11T08:12:32.507Z,657.00
2023-05-11T08:13:32.535Z,651.00
2023-05-11T08:14:32.550Z,648.00
2023-05-11T08:15:32.571Z,643.00
2023-05-11T08:16:32.655Z,636.00
2023-05-11T08:17:32.709Z,634.00
2023-05-11T08:18:32.674Z,635.00
2023-05-11T08:19:32.698Z,638.00
2023-05-11T08:20:32.768Z,656.00
2023-05-11T08:21:32.808Z,650.00
2023-05-11T08:22:32.813Z,647.00
2023-05-11T08:23:32.821Z,644.00
2023-05-11T08:24:32.852Z,641.00
2023-05-11T08:25:32.898Z,653.00
2023-05-11T08:26:33.241Z,703.00
2023-05-11T08:27:32.986Z,717.00
2023-05-11T08:28:33.012Z,733.00
2023-05-11T08:29:33.099Z,741.00
2023-05-11T08:30:33.059Z,839.00
2023-05-11T08:31:33.186Z,861.00
2023-05-11T08:32:40.592Z,876.00
2023-05-11T08:33:38.131Z,957.00
2023-05-11T08:34:33.175Z,1005.00
2023-05-11T08:35:33.079Z,1014.00
2023-05-11T08:36:33.061Z,1042.00
2023-05-11T08:37:33.102Z,1045.00
2023-05-11T08:38:33.053Z,1099.00
2023-05-11T08:39:46.022Z,1138.00
2023-05-11T08:40:34.040Z,1137.00
2023-05-11T08:41:33.053Z,1132.00
2023-05-11T08:42:33.023Z,1122.00
2023-05-11T08:43:33.107Z,1098.00
2023-05-11T08:44:33.011Z,1074.00
2023-05-11T08:45:33.048Z,1062.00
2023-05-11T08:46:33.006Z,1052.00
2023-05-11T08:47:33.045Z,1041.00
2023-05-11T08:48:33.052Z,1027.00
2023-05-11T08:49:33.020Z,1010.00
2023-05-11T08:50:33.035Z,1001.00
2023-05-11T08:51:33.346Z,990.00
2023-05-11T08:52:33.081Z,985.00
2023-05-11T08:53:33.165Z,978.00
2023-05-11T08:54:33.157Z,967.00
2023-05-11T08:55:33.183Z,947.00
2023-05-11T08:56:33.250Z,944.00
2023-05-11T08:57:33.243Z,934.00
2023-05-11T08:58:33.278Z,927.00
2023-05-11T08:59:33.371Z,916.00
2023-05-11T09:00:33.296Z,908.00
2023-05-11T09:01:33.382Z,902.00
2023-05-11T09:02:33.484Z,897.00
2023-05-11T09:03:33.338Z,890.00
2023-05-11T09:04:33.484Z,879.00
2023-05-11T09:05:33.440Z,871.00
2023-05-11T09:06:33.408Z,855.00
2023-05-11T09:07:33.414Z,841.00
2023-05-11T09:08:33.440Z,840.00
2023-05-11T09:09:33.480Z,834.00
2023-05-11T09:10:33.458Z,826.00
2023-05-11T09:11:33.474Z,817.00
2023-05-11T09:12:33.499Z,807.00
2023-05-11T09:13:33.518Z,804.00
2023-05-11T09:14:33.520Z,798.00
2023-05-11T09:15:37.285Z,794.00
2023-05-11T09:16:37.333Z,790.00
2023-05-11T09:17:33.571Z,783.00
2023-05-11T09:18:33.529Z,776.00
2023-05-11T09:19:33.512Z,771.00
2023-05-11T09:20:33.531Z,766.00
2023-05-11T09:21:33.507Z,760.00
2023-05-11T09:22:36.075Z,755.00
2023-05-11T09:23:33.504Z,751.00
2023-05-11T09:24:34.314Z,748.00
2023-05-11T09:25:33.482Z,743.00
2023-05-11T09:26:33.468Z,740.00
2023-05-11T09:27:33.452Z,736.00
2023-05-11T09:29:33.515Z,806.00
2023-05-11T09:30:33.446Z,812.00
2023-05-11T09:31:33.463Z,809.00
2023-05-11T09:32:33.462Z,805.00
2023-05-11T09:33:33.495Z,805.00
2023-05-11T09:34:33.414Z,930.00
2023-05-11T09:35:33.407Z,929.00
2023-05-11T09:36:33.412Z,1002.00
2023-05-11T09:37:33.443Z,1044.00
2023-05-11T09:38:33.389Z,1045.00
2023-05-11T09:40:34.163Z,1047.00
2023-05-11T09:41:35.854Z,1053.00
2023-05-11T09:42:33.472Z,1035.00
2023-05-11T09:43:33.499Z,995.00
2023-05-11T09:44:33.507Z,1005.00
2023-05-11T09:45:33.528Z,999.00
2023-05-11T09:46:33.574Z,994.00
2023-05-11T09:47:33.596Z,989.00
2023-05-11T09:48:33.612Z,978.00
2023-05-11T09:49:33.602Z,967.00
2023-05-11T09:50:33.588Z,958.00
2023-05-11T09:51:33.654Z,946.00
2023-05-11T09:52:33.615Z,926.00
2023-05-11T09:53:33.654Z,916.00
2023-05-11T09:54:33.662Z,903.00
2023-05-11T09:55:33.700Z,894.00
2023-05-11T09:56:33.717Z,887.00
2023-05-11T09:57:33.706Z,869.00
2023-05-11T09:58:33.723Z,856.00
2023-05-11T09:59:33.763Z,851.00
2023-05-11T10:00:33.793Z,844.00
2023-05-11T10:01:33.865Z,841.00
2023-05-11T10:02:33.900Z,835.00
2023-05-11T10:03:33.925Z,829.00
2023-05-11T10:04:34.007Z,821.00
2023-05-11T10:05:33.935Z,811.00
2023-05-11T10:06:33.960Z,805.00
2023-05-11T10:07:34.019Z,797.00
2023-05-11T10:08:34.057Z,794.00
2023-05-11T10:09:34.075Z,789.00
2023-05-11T10:10:34.098Z,786.00
2023-05-11T10:11:34.174Z,779.00
2023-05-11T10:12:34.161Z,771.00
2023-05-11T10:13:34.197Z,765.00
2023-05-11T10:14:34.212Z,761.00
2023-05-11T10:15:34.242Z,754.00
2023-05-11T10:16:34.303Z,743.00
2023-05-11T10:17:34.416Z,728.00
2023-05-11T10:18:34.373Z,723.00
2023-05-11T10:19:34.372Z,716.00
2023-05-11T10:20:34.439Z,712.00
2023-05-11T10:21:34.470Z,706.00
2023-05-11T10:22:34.569Z,700.00
2023-05-11T10:23:34.583Z,695.00
2023-05-11T10:24:34.609Z,691.00
2023-05-11T10:25:34.681Z,743.00
2023-05-11T10:26:34.737Z,810.00
2023-05-11T10:27:34.738Z,913.00
2023-05-11T10:28:34.892Z,898.00
2023-05-11T10:29:34.814Z,906.00
2023-05-11T10:30:34.876Z,928.00
2023-05-11T10:31:34.906Z,959.00
2023-05-11T10:32:34.884Z,980.00
2023-05-11T10:33:34.862Z,1070.00
2023-05-11T10:34:34.870Z,1079.00
2023-05-11T10:35:34.880Z,1071.00
2023-05-11T10:36:34.954Z,1032.00
2023-05-11T10:37:35.869Z,1023.00
2023-05-11T10:38:34.866Z,1014.00
2023-05-11T10:39:34.886Z,1002.00
2023-05-11T10:40:34.860Z,978.00
2023-05-11T10:41:34.847Z,969.00
2023-05-11T10:42:34.843Z,962.00
2023-05-11T10:43:34.869Z,949.00
2023-05-11T10:44:34.834Z,923.00
2023-05-11T10:45:34.841Z,913.00
2023-05-11T10:46:34.847Z,908.00
2023-05-11T10:47:34.860Z,901.00
2023-05-11T10:48:34.806Z,888.00
2023-05-11T10:49:34.819Z,884.00
2023-05-11T10:50:34.799Z,877.00
2023-05-11T10:51:34.806Z,869.00
2023-05-11T10:52:34.776Z,859.00
2023-05-11T10:53:34.796Z,852.00
2023-05-11T10:54:34.759Z,840.00
2023-05-11T10:55:34.755Z,830.00
2023-05-11T10:56:34.821Z,820.00
2023-05-11T10:57:34.850Z,812.00
2023-05-11T10:58:34.856Z,808.00
2023-05-11T10:59:34.901Z,795.00
2023-05-11T11:00:35.029Z,793.00
2023-05-11T11:01:35.056Z,780.00
2023-05-11T11:02:35.016Z,776.00
2023-05-11T11:03:35.052Z,776.00
2023-05-11T11:04:35.100Z,774.00
2023-05-11T11:05:35.140Z,767.00
2023-05-11T11:06:35.145Z,760.00
2023-05-11T11:07:35.151Z,755.00
2023-05-11T11:08:35.223Z,746.00
2023-05-11T11:09:35.253Z,746.00
2023-05-11T11:10:35.253Z,740.00
2023-05-11T11:11:35.298Z,731.00
2023-05-11T11:12:35.330Z,728.00
2023-05-11T11:13:35.367Z,804.00
2023-05-11T11:14:35.408Z,799.00
2023-05-11T11:15:35.441Z,857.00
2023-05-11T11:16:35.563Z,870.00
2023-05-11T11:17:35.859Z,887.00
2023-05-11T11:18:35.547Z,899.00
2023-05-11T11:19:35.513Z,905.00
2023-05-11T11:20:35.577Z,910.00
2023-05-11T11:21:35.552Z,917.00
2023-05-11T11:22:35.638Z,922.00
2023-05-11T11:23:35.596Z,925.00
2023-05-11T11:24:35.631Z,927.00
2023-05-11T11:25:35.639Z,928.00
2023-05-11T11:26:35.682Z,930.00
2023-05-11T11:27:35.685Z,931.00
2023-05-11T11:28:35.726Z,930.00
2023-05-11T11:29:35.753Z,932.00
2023-05-11T11:30:35.695Z,932.00
2023-05-11T11:31:35.830Z,930.00
2023-05-11T11:32:35.904Z,931.00
2023-05-11T11:33:35.742Z,933.00
2023-05-11T11:34:35.755Z,936.00
2023-05-11T11:35:35.770Z,937.00
2023-05-11T11:36:35.787Z,936.00
2023-05-11T11:37:35.793Z,934.00
2023-05-11T11:38:35.835Z,932.00
2023-05-11T11:39:35.800Z,930.00
2023-05-11T11:40:43.195Z,932.00
2023-05-11T11:41:36.805Z,933.00
2023-05-11T11:42:35.817Z,931.00
2023-05-11T11:43:37.751Z,928.00
2023-05-11T11:44:35.787Z,929.00
2023-05-11T11:45:35.806Z,930.00
2023-05-11T11:46:35.813Z,935.00
2023-05-11T11:47:35.810Z,937.00
2023-05-11T11:48:35.803Z,938.00
2023-05-11T11:49:35.783Z,938.00
2023-05-11T11:50:35.758Z,940.00
2023-05-11T11:51:35.760Z,938.00
2023-05-11T11:52:35.751Z,939.00
2023-05-11T11:53:35.766Z,941.00
2023-05-11T11:54:35.769Z,941.00
2023-05-11T11:55:35.743Z,941.00
2023-05-11T11:56:35.717Z,942.00
2023-05-11T11:57:35.744Z,939.00
2023-05-11T11:58:35.720Z,936.00
2023-05-11T11:59:35.707Z,934.00
2023-05-11T12:00:35.712Z,936.00
2023-05-11T12:01:35.687Z,936.00
2023-05-11T12:02:35.750Z,934.00
2023-05-11T12:03:35.831Z,933.00
2023-05-11T12:04:35.694Z,934.00
2023-05-11T12:05:35.680Z,933.00
2023-05-11T12:06:35.686Z,931.00
2023-05-11T12:07:35.693Z,931.00
2023-05-11T12:08:35.760Z,930.00
2023-05-11T12:09:35.802Z,931.00
2023-05-11T12:10:35.789Z,932.00
2023-05-11T12:11:35.796Z,934.00
2023-05-11T12:12:35.829Z,934.00
2023-05-11T12:13:35.859Z,936.00
2023-05-11T12:14:35.906Z,936.00
2023-05-11T12:15:35.914Z,938.00
2023-05-11T12:16:36.014Z,937.00
2023-05-11T12:17:36.000Z,935.00
2023-05-11T12:18:36.022Z,937.00
2023-05-11T12:19:36.037Z,945.00
2023-05-11T12:20:36.052Z,1010.00
2023-05-11T12:21:36.107Z,1038.00
2023-05-11T12:22:36.163Z,1047.00
2023-05-11T12:23:36.206Z,1048.00
2023-05-11T12:24:36.247Z,1059.00
2023-05-11T12:25:36.296Z,1099.00